Colorado Springs, CO (80941)

3:32 PM MDT on March 29, 2015 (GMT -0600)
Palmer Park | | Change Station
CLOSE
Current Station
Personal Weather Station
Location: Colorado Springs, CO
Elevation: 6381 ft
Nearby Weather Stations

Elev 6381 ft 38.87 °N, 104.77 °W | Updated 12 minutes ago

Clear
Clear
62.2 °F
Feels Like 62.2 °F
N
15.5
Wind Variable Wind from South

Today
High -- | Low -- °F
--% Chance of Precip.
Yesterday
High -- | Low -- °F
Precip. -- in
6:48 AM 7:19 PM
Waxing Gibbous, 74% visible
Pressure 30.09 in
Visibility 10.0 miles
Clouds Few 8000 ft
Dew Point 21 °F
Humidity 20%
Rainfall 0.00 in
Snow Depth Not available.
UV 7 out of 12
Pollen 11.30 out of 12
Air Quality Not available.
Flu Activity Not available.
METAR KCOS 292054Z 19010G19KT 10SM FEW080 16/M06 A3025 RMK AO2 SLP187 T01611061 58021

More Conditions Fewer Conditions

Pressure 30.09 in
Visibility 10.0 miles
Clouds Few 8000 ft
Dew Point 21 °F
Humidity 20%
Rainfall 0.00 in
Snow Depth Not available.
UV 7 out of 12
Pollen 11.30 out of 12
Air Quality Not available.
Flu Activity Not available.
METAR KCOS 292054Z 19010G19KT 10SM FEW080 16/M06 A3025 RMK AO2 SLP187 T01611061 58021

More Conditions Fewer Conditions

10-Day Weather Forecast

Almanac

Astronomy

Mar. 29, 2015 Rise Set
Actual Time
Civil Twilight
Nautical Twilight
Astronomical Twilight
Moon
Length of Visible Light
Length of Day
Tomorrow will be .
, % of the Moon is Illuminated

Today's Extremes

State Highs State Lows

Community

WunderPhotos

Upload Photos

1,809,355 photos uploaded!

WunderBlogs® & News

Nearby

Air Quality

  Air Quality AQ Index Pollutant
Not available.

Snow Depth

Station Depth Elevation

Earthquake Activity

City Distance Mag. Time & Date
Minimum magnitude displayed is 2.5.

Coastal Water Temperatures

Place Temperature

Stations

Nearby Weather Stations

Station Location Temp. Windchill Dew Point Humidity Wind Precip. Elev Updated Type